ENTK1: Smokey Hill River, Enterprise, KS

Data processed at Thu Jan 04 2018 23:47


All information presented herein is the property of the government of the United States of America and may be revised or deleted at any time without prior notice.
Dissemination of this information without the expressed written consent of the Public Affairs Office, Tulsa District U.S. Army Corps of Engineers is strictly prohibited.
These data are gathered electronically and, as presented, have not undergone any form of quality control. These data are not guaranteed to be valid or correct.
Go to home page.
Go to station list.


Previous Day
Next Day
Current Day


    
SHEF ID:       ENTK1     SMOKY HILL R AT ENTERPRISE, KS
STATION TYPE:  

               PRECIP     STAGE  RIV-FLOW  BAT-LOAD
                   in        ft       cfs      volt
              Ccp-Rev   Ccp-Rev   Ccp-Rev   Ccp-Rev
(US/Central)
01/02 00:00      0.00      8.16       916     12.42
01/02 01:00      0.00      8.17       921     12.36
01/02 02:00      0.00      8.18       925     12.30
01/02 03:00      0.00      8.18       925      ----
01/02 04:00      0.00      8.17       921     12.24
01/02 05:00      0.00      8.16       916     12.13
01/02 06:00      0.00      8.15       912     12.13
01/02 07:00      0.00      8.12       900     12.13
01/02 08:00      0.00      8.11       896     12.13
01/02 09:00      0.00      8.09       887     13.36
01/02 10:00      0.00      8.05       871     13.30
01/02 11:00      0.00      8.05       871     13.42
01/02 12:00      0.00      8.06       875     13.36
01/02 13:00      0.00      8.08       883     13.48
01/02 14:00      0.00      8.10       891     13.48
01/02 15:00      0.00      8.13       904     13.36
01/02 16:00      0.00      8.14       908     13.53
01/02 17:00      0.00      8.13       904     13.00
01/02 18:00      0.00      8.14       908     12.89
01/02 19:00      0.00      8.11       896     12.83
01/02 20:00      0.00      8.11       896     12.77
01/02 21:00      0.00      8.09       887     12.71
01/02 22:00      0.00      8.09       887     12.65
01/02 23:00      0.00      8.10       891     12.65